createdAt,value
2024-02-27T00:00:00.866Z,22.93
2024-02-27T00:01:01.098Z,22.96
2024-02-27T00:02:00.932Z,22.96
2024-02-27T00:03:01.073Z,22.96
2024-02-27T00:04:00.980Z,22.93
2024-02-27T00:05:01.046Z,22.98
2024-02-27T00:06:01.184Z,22.98
2024-02-27T00:07:01.205Z,22.99
2024-02-27T00:08:01.195Z,22.96
2024-02-27T00:09:01.265Z,22.99
2024-02-27T00:10:01.253Z,22.96
2024-02-27T00:11:01.306Z,23.04
2024-02-27T00:12:01.393Z,23.07
2024-02-27T00:13:01.372Z,23.00
2024-02-27T00:14:01.385Z,23.00
2024-02-27T00:15:01.416Z,23.01
2024-02-27T00:16:01.430Z,23.05
2024-02-27T00:17:01.480Z,23.05
2024-02-27T00:18:01.592Z,23.08
2024-02-27T00:19:01.773Z,23.05
2024-02-27T00:20:01.705Z,23.01
2024-02-27T00:21:01.664Z,23.04
2024-02-27T00:22:01.639Z,23.05
2024-02-27T00:23:01.657Z,23.01
2024-02-27T00:24:01.750Z,22.99
2024-02-27T00:25:01.767Z,23.04
2024-02-27T00:26:01.786Z,23.01
2024-02-27T00:27:01.860Z,22.98
2024-02-27T00:28:01.846Z,23.01
2024-02-27T00:29:01.883Z,23.01
2024-02-27T00:30:01.909Z,23.02
2024-02-27T00:31:01.939Z,23.03
2024-02-27T00:32:01.981Z,23.03
2024-02-27T00:33:02.117Z,23.01
2024-02-27T00:34:02.146Z,23.09
2024-02-27T00:35:02.330Z,23.07
2024-02-27T00:36:02.133Z,23.00
2024-02-27T00:37:02.111Z,23.03
2024-02-27T00:38:02.164Z,23.01
2024-02-27T00:39:02.232Z,23.07
2024-02-27T00:40:02.229Z,23.01
2024-02-27T00:41:02.279Z,23.04
2024-02-27T00:42:02.308Z,23.03
2024-02-27T00:43:02.349Z,23.01
2024-02-27T00:44:02.349Z,23.04
2024-02-27T00:45:02.423Z,23.00
2024-02-27T00:46:02.418Z,23.03
2024-02-27T00:47:02.423Z,23.05
2024-02-27T00:48:02.571Z,22.96
2024-02-27T00:49:02.554Z,22.97
2024-02-27T00:50:02.501Z,22.94
2024-02-27T00:51:02.642Z,22.93
2024-02-27T00:52:02.576Z,22.90
2024-02-27T00:53:02.573Z,22.96
2024-02-27T00:54:02.576Z,22.91
2024-02-27T00:55:02.654Z,22.91
2024-02-27T00:56:02.649Z,22.90
2024-02-27T00:57:02.731Z,22.90
2024-02-27T00:58:02.723Z,22.93
2024-02-27T00:59:02.736Z,22.91
2024-02-27T01:00:02.768Z,22.91
2024-02-27T01:01:02.805Z,22.97
2024-02-27T01:02:02.834Z,22.94
2024-02-27T01:03:02.902Z,22.93
2024-02-27T01:04:02.900Z,22.98
2024-02-27T01:05:03.011Z,22.93
2024-02-27T01:06:03.107Z,22.94
2024-02-27T01:07:03.246Z,22.96
2024-02-27T01:08:03.036Z,22.96
2024-02-27T01:09:03.130Z,23.01
2024-02-27T01:10:03.099Z,22.98
2024-02-27T01:11:03.123Z,22.97
2024-02-27T01:12:03.287Z,22.96
2024-02-27T01:13:03.214Z,22.96
2024-02-27T01:14:03.254Z,22.94
2024-02-27T01:15:03.346Z,22.94
2024-02-27T01:16:03.334Z,23.01
2024-02-27T01:17:03.361Z,22.93
2024-02-27T01:18:03.425Z,23.01
2024-02-27T01:19:03.532Z,22.99
2024-02-27T01:20:03.430Z,22.96
2024-02-27T01:21:03.566Z,23.01
2024-02-27T01:22:03.443Z,22.94
2024-02-27T01:23:03.503Z,22.95
2024-02-27T01:24:03.563Z,22.89
2024-02-27T01:25:03.587Z,22.94
2024-02-27T01:26:03.618Z,22.92
2024-02-27T01:27:03.676Z,22.89
2024-02-27T01:28:03.641Z,22.94
2024-02-27T01:29:03.689Z,22.92
2024-02-27T01:30:03.761Z,22.89
2024-02-27T01:31:03.712Z,22.87
2024-02-27T01:32:03.768Z,22.95
2024-02-27T01:33:03.951Z,22.92
2024-02-27T01:34:04.013Z,22.91
2024-02-27T01:35:04.159Z,22.91
2024-02-27T01:36:03.952Z,22.88
2024-02-27T01:37:03.875Z,22.91
2024-02-27T01:38:03.903Z,22.94
2024-02-27T01:39:03.978Z,22.94
2024-02-27T01:40:03.916Z,22.92
2024-02-27T01:41:03.923Z,22.95
2024-02-27T01:42:04.019Z,22.91
2024-02-27T01:43:03.976Z,22.89
2024-02-27T01:44:04.031Z,22.91
2024-02-27T01:45:04.063Z,22.94
2024-02-27T01:46:04.016Z,22.95
2024-02-27T01:47:05.635Z,22.94
2024-02-27T01:48:04.131Z,22.97
2024-02-27T01:49:04.152Z,23.02
2024-02-27T01:50:04.046Z,23.00
2024-02-27T01:51:04.125Z,22.98
2024-02-27T01:52:04.099Z,22.99
2024-02-27T01:53:04.093Z,22.99
2024-02-27T01:54:04.139Z,22.94
2024-02-27T01:55:04.241Z,22.94
2024-02-27T01:56:04.157Z,22.93
2024-02-27T01:57:04.236Z,22.92
2024-02-27T01:58:04.197Z,22.93
2024-02-27T01:59:04.239Z,22.87
2024-02-27T02:00:04.244Z,22.87
2024-02-27T02:01:04.407Z,22.90
2024-02-27T02:02:04.269Z,22.89
2024-02-27T02:03:04.367Z,22.92
2024-02-27T02:04:04.397Z,22.86
2024-02-27T02:05:04.349Z,22.83
2024-02-27T02:06:04.436Z,22.80
2024-02-27T02:07:04.525Z,22.84
2024-02-27T02:08:04.354Z,22.80
2024-02-27T02:09:04.511Z,22.81
2024-02-27T02:10:04.482Z,22.80
2024-02-27T02:11:04.785Z,22.77
2024-02-27T02:12:04.685Z,22.71
2024-02-27T02:13:04.681Z,22.74
2024-02-27T02:14:04.755Z,22.77
2024-02-27T02:15:04.944Z,22.71
2024-02-27T02:16:04.923Z,22.70
2024-02-27T02:17:05.033Z,22.74
2024-02-27T02:18:05.131Z,22.67
2024-02-27T02:19:05.159Z,22.68
2024-02-27T02:20:26.797Z,22.70
2024-02-27T02:21:26.816Z,22.68
2024-02-27T02:22:26.777Z,22.65
2024-02-27T02:23:26.765Z,22.65
2024-02-27T02:24:26.813Z,22.64
2024-02-27T02:25:28.045Z,22.68
2024-02-27T02:26:26.873Z,22.64
2024-02-27T02:27:26.854Z,22.68
2024-02-27T02:28:26.788Z,22.66
2024-02-27T02:29:26.759Z,22.62
2024-02-27T02:30:26.849Z,22.65
2024-02-27T02:31:26.836Z,22.65
2024-02-27T02:32:26.908Z,22.71
2024-02-27T02:33:27.057Z,22.70
2024-02-27T02:34:27.022Z,22.71
2024-02-27T02:35:27.009Z,22.70
2024-02-27T02:36:27.064Z,22.76
2024-02-27T02:37:27.098Z,22.70
2024-02-27T02:38:27.181Z,22.75
2024-02-27T02:39:27.339Z,22.73
2024-02-27T02:40:27.294Z,22.78
2024-02-27T02:41:27.364Z,22.75
2024-02-27T02:42:27.483Z,22.78
2024-02-27T02:43:27.483Z,22.76
2024-02-27T02:44:27.540Z,22.76
2024-02-27T02:45:27.606Z,22.76
2024-02-27T02:46:27.601Z,22.69
2024-02-27T02:47:27.667Z,22.73
2024-02-27T02:48:27.704Z,22.77
2024-02-27T02:49:27.814Z,22.69
2024-02-27T02:50:27.774Z,22.72
2024-02-27T02:51:27.866Z,22.75
2024-02-27T02:52:27.849Z,22.67
2024-02-27T02:53:27.886Z,22.69
2024-02-27T02:54:28.029Z,22.72
2024-02-27T02:55:28.010Z,22.69
2024-02-27T02:56:28.082Z,22.71
2024-02-27T02:57:28.090Z,22.71
2024-02-27T02:58:28.139Z,22.65
2024-02-27T02:59:28.174Z,22.69
2024-02-27T03:00:28.300Z,22.69
2024-02-27T03:01:28.362Z,22.74
2024-02-27T03:02:28.309Z,22.76
2024-02-27T03:03:28.433Z,22.71
2024-02-27T03:04:28.436Z,22.72
2024-02-27T03:05:28.450Z,22.76
2024-02-27T03:06:28.689Z,22.76
2024-02-27T03:07:28.663Z,22.74
2024-02-27T03:08:28.570Z,22.77
2024-02-27T03:09:28.663Z,22.76
2024-02-27T03:10:28.692Z,22.78
2024-02-27T03:11:28.690Z,22.80
2024-02-27T03:12:28.791Z,22.91
2024-02-27T03:13:28.794Z,22.85
2024-02-27T03:14:28.896Z,22.82
2024-02-27T03:15:28.962Z,22.85
2024-02-27T03:16:28.926Z,22.91
2024-02-27T03:17:29.033Z,22.86
2024-02-27T03:18:29.164Z,22.86
2024-02-27T03:19:29.094Z,22.83
2024-02-27T03:20:29.082Z,22.86
2024-02-27T03:21:29.170Z,22.90
2024-02-27T03:22:29.186Z,22.91
2024-02-27T03:23:29.181Z,22.91
2024-02-27T03:24:29.378Z,22.85
2024-02-27T03:25:29.309Z,22.90
2024-02-27T03:26:29.367Z,22.90
2024-02-27T03:27:30.205Z,22.81
2024-02-27T03:28:29.431Z,22.85
2024-02-27T03:29:29.471Z,22.85
2024-02-27T03:30:29.624Z,22.82
2024-02-27T03:31:29.577Z,22.91
2024-02-27T03:32:29.666Z,22.82
2024-02-27T03:33:29.771Z,22.89
2024-02-27T03:34:29.761Z,22.85
2024-02-27T03:35:29.743Z,22.84
2024-02-27T03:36:29.818Z,22.87
2024-02-27T03:37:29.785Z,22.85
2024-02-27T03:38:29.850Z,22.91
2024-02-27T03:39:29.929Z,22.86
2024-02-27T03:40:29.943Z,22.87
2024-02-27T03:41:29.984Z,22.84
2024-02-27T03:42:30.091Z,22.90
2024-02-27T03:43:30.160Z,22.93
2024-02-27T03:44:30.098Z,22.98
2024-02-27T03:45:30.173Z,22.99
2024-02-27T03:46:30.271Z,22.93
2024-02-27T03:47:30.296Z,22.98
2024-02-27T03:48:30.428Z,22.99
2024-02-27T03:49:30.358Z,22.98
2024-02-27T03:50:30.365Z,22.99
2024-02-27T03:51:30.459Z,23.02
2024-02-27T03:52:30.964Z,22.99
2024-02-27T03:53:30.474Z,22.99
2024-02-27T03:54:30.571Z,23.07
2024-02-27T03:55:30.559Z,23.02
2024-02-27T03:56:30.613Z,23.04
2024-02-27T03:57:30.708Z,23.09
2024-02-27T03:58:30.667Z,23.02
2024-02-27T03:59:30.742Z,23.10
2024-02-27T04:00:30.756Z,23.04
2024-02-27T04:01:30.809Z,23.07
2024-02-27T04:02:30.876Z,23.06
2024-02-27T04:03:30.864Z,23.09
2024-02-27T04:04:30.930Z,23.10
2024-02-27T04:05:30.913Z,23.13
2024-02-27T04:06:31.016Z,23.10
2024-02-27T04:07:31.066Z,23.12
2024-02-27T04:08:31.049Z,23.12
2024-02-27T04:09:31.126Z,23.11
2024-02-27T04:10:31.127Z,23.10
2024-02-27T04:11:31.214Z,23.19
2024-02-27T04:12:31.212Z,23.12
2024-02-27T04:13:33.065Z,23.19
2024-02-27T04:14:31.268Z,23.15
2024-02-27T04:15:31.296Z,23.21
2024-02-27T04:16:31.352Z,23.17
2024-02-27T04:17:31.449Z,23.18
2024-02-27T04:18:31.625Z,23.23
2024-02-27T04:19:31.575Z,23.17
2024-02-27T04:20:31.551Z,23.20
2024-02-27T04:21:31.547Z,23.18
2024-02-27T04:22:31.559Z,23.21
2024-02-27T04:23:31.648Z,23.27
2024-02-27T04:24:31.668Z,23.23
2024-02-27T04:25:31.669Z,23.23
2024-02-27T04:26:31.692Z,23.27
2024-02-27T04:27:31.837Z,23.27
2024-02-27T04:28:31.791Z,23.30
2024-02-27T04:29:31.806Z,23.29
2024-02-27T04:30:39.019Z,23.35
2024-02-27T04:31:46.265Z,23.39
2024-02-27T04:32:46.244Z,23.40
2024-02-27T04:33:46.485Z,23.39
2024-02-27T04:34:46.285Z,23.40
2024-02-27T04:35:46.210Z,23.39
2024-02-27T04:36:46.212Z,23.36
2024-02-27T04:37:46.196Z,23.37
2024-02-27T04:38:46.210Z,23.39
2024-02-27T04:39:46.202Z,23.36
2024-02-27T04:40:46.231Z,23.36
2024-02-27T04:41:46.236Z,23.39
2024-02-27T04:42:46.202Z,23.35
2024-02-27T04:43:46.215Z,23.39
2024-02-27T04:44:46.177Z,23.41
2024-02-27T04:45:46.239Z,23.39
2024-02-27T04:46:46.230Z,23.42
2024-02-27T04:47:46.289Z,23.43
2024-02-27T04:48:46.289Z,23.44
2024-02-27T04:49:46.355Z,23.44
2024-02-27T04:50:46.218Z,23.47
2024-02-27T04:51:46.219Z,23.46
2024-02-27T04:52:46.209Z,23.45
2024-02-27T04:53:46.209Z,23.44
2024-02-27T04:54:46.240Z,23.54
2024-02-27T04:55:46.231Z,23.49
2024-02-27T04:56:46.268Z,23.52
2024-02-27T04:57:46.233Z,23.47
2024-02-27T04:58:46.232Z,23.48
2024-02-27T04:59:46.214Z,23.48
2024-02-27T05:00:46.337Z,23.54
2024-02-27T05:01:46.232Z,23.55
2024-02-27T05:02:46.240Z,23.55
2024-02-27T05:03:46.359Z,23.61
2024-02-27T05:04:46.252Z,23.65
2024-02-27T05:05:46.323Z,23.61
2024-02-27T05:06:46.275Z,23.62
2024-02-27T05:07:46.228Z,23.56
2024-02-27T05:08:46.231Z,23.53
2024-02-27T05:09:47.126Z,23.52
2024-02-27T05:10:46.374Z,23.51
2024-02-27T05:11:46.249Z,23.54
2024-02-27T05:12:46.241Z,23.48
2024-02-27T05:13:46.243Z,23.44
2024-02-27T05:14:46.214Z,23.48
2024-02-27T05:15:46.234Z,23.45
2024-02-27T05:16:46.227Z,23.45
2024-02-27T05:17:46.268Z,23.48
2024-02-27T05:18:46.340Z,23.42
2024-02-27T05:19:46.345Z,23.48
2024-02-27T05:20:46.260Z,23.38
2024-02-27T05:21:46.350Z,23.36
2024-02-27T05:22:46.320Z,23.37
2024-02-27T05:23:46.347Z,23.37
2024-02-27T05:24:46.432Z,23.41
2024-02-27T05:25:46.505Z,23.35
2024-02-27T05:26:46.543Z,23.39
2024-02-27T05:27:46.576Z,23.37
2024-02-27T05:28:46.626Z,23.34
2024-02-27T05:29:46.740Z,23.38
2024-02-27T05:30:46.782Z,23.38
2024-02-27T05:31:46.737Z,23.35
2024-02-27T05:32:46.824Z,23.31
2024-02-27T05:33:46.964Z,23.31
2024-02-27T05:34:46.929Z,23.31
2024-02-27T05:35:46.942Z,23.38
2024-02-27T05:36:47.067Z,23.35
2024-02-27T05:37:47.123Z,23.42
2024-02-27T05:38:47.101Z,23.42
2024-02-27T05:39:47.164Z,23.43
2024-02-27T05:40:47.227Z,23.46
2024-02-27T05:41:47.258Z,23.52
2024-02-27T05:42:47.355Z,23.48
2024-02-27T05:43:47.395Z,23.54
2024-02-27T05:44:47.504Z,23.60
2024-02-27T05:45:47.594Z,23.61
2024-02-27T05:46:47.623Z,23.63
2024-02-27T05:47:47.660Z,23.67
2024-02-27T05:48:47.793Z,23.74
2024-02-27T05:49:47.847Z,23.78
2024-02-27T05:50:47.904Z,23.75
2024-02-27T05:51:47.961Z,23.76
2024-02-27T05:52:48.013Z,23.85
2024-02-27T05:53:48.185Z,23.79
2024-02-27T05:54:48.263Z,23.84
2024-02-27T05:55:48.243Z,23.92
2024-02-27T05:56:48.275Z,23.89
2024-02-27T05:57:48.414Z,23.92
2024-02-27T05:58:48.395Z,23.93
2024-02-27T05:59:48.426Z,24.00
2024-02-27T06:00:48.575Z,23.97
2024-02-27T06:01:48.547Z,23.99
2024-02-27T06:02:48.654Z,23.99
2024-02-27T06:03:48.775Z,24.03
2024-02-27T06:04:48.823Z,24.01
2024-02-27T06:05:48.833Z,24.01
2024-02-27T06:06:49.010Z,24.01
2024-02-27T06:07:48.935Z,24.00
2024-02-27T06:08:48.976Z,24.00
2024-02-27T06:09:49.081Z,24.01
2024-02-27T06:10:49.109Z,24.07
2024-02-27T06:11:49.101Z,24.04
2024-02-27T06:12:49.289Z,24.08
2024-02-27T06:13:49.205Z,24.11
2024-02-27T06:14:49.299Z,24.06
2024-02-27T06:15:49.336Z,24.11
2024-02-27T06:16:49.347Z,24.13
2024-02-27T06:17:49.395Z,24.14
2024-02-27T06:18:49.710Z,24.18
2024-02-27T06:19:49.417Z,24.18
2024-02-27T06:20:49.399Z,24.24
2024-02-27T06:21:49.486Z,24.24
2024-02-27T06:22:49.436Z,24.28
2024-02-27T06:23:49.454Z,24.25
2024-02-27T06:24:49.552Z,24.24
2024-02-27T06:25:49.624Z,24.21
2024-02-27T06:26:49.586Z,24.24
2024-02-27T06:27:49.674Z,24.17
2024-02-27T06:28:49.665Z,24.24
2024-02-27T06:29:49.766Z,24.16
2024-02-27T06:30:49.848Z,24.21
2024-02-27T06:31:49.900Z,24.17
2024-02-27T06:32:49.945Z,24.19
2024-02-27T06:33:50.010Z,24.66
2024-02-27T06:34:50.010Z,24.68
2024-02-27T06:35:49.954Z,25.06
2024-02-27T06:36:49.993Z,25.35
2024-02-27T06:37:50.061Z,25.47
2024-02-27T06:38:50.106Z,25.30
2024-02-27T06:39:50.128Z,25.53
2024-02-27T06:40:50.193Z,25.51
2024-02-27T06:41:50.326Z,25.76
2024-02-27T06:42:50.281Z,25.95
2024-02-27T06:43:50.328Z,26.24
2024-02-27T06:44:50.357Z,25.98
2024-02-27T06:45:50.425Z,26.06
2024-02-27T06:46:50.431Z,26.02
2024-02-27T06:47:50.908Z,26.01
2024-02-27T06:48:50.583Z,26.03
2024-02-27T06:49:51.043Z,25.96
2024-02-27T06:50:50.559Z,26.10
2024-02-27T06:51:50.622Z,26.19
2024-02-27T06:52:50.866Z,26.26
2024-02-27T06:53:50.657Z,26.29
2024-02-27T06:54:50.656Z,26.47
2024-02-27T06:55:50.658Z,26.63
2024-02-27T06:56:50.708Z,26.83
2024-02-27T06:57:51.412Z,26.86
2024-02-27T06:58:50.703Z,26.76
2024-02-27T06:59:50.759Z,26.76
2024-02-27T07:00:50.844Z,26.51
2024-02-27T07:01:50.810Z,26.27
2024-02-27T07:02:51.187Z,26.22
2024-02-27T07:03:50.870Z,26.14
2024-02-27T07:04:50.941Z,26.16
2024-02-27T07:05:53.781Z,26.19
2024-02-27T07:06:50.885Z,26.14
2024-02-27T07:07:50.921Z,26.06
2024-02-27T07:08:50.814Z,25.98
2024-02-27T07:09:50.838Z,26.14
2024-02-27T07:10:50.909Z,26.09
2024-02-27T07:11:50.844Z,26.14
2024-02-27T07:12:50.877Z,26.10
2024-02-27T07:13:50.944Z,26.09
2024-02-27T07:14:50.850Z,26.06
2024-02-27T07:15:50.905Z,26.09
2024-02-27T07:16:50.835Z,26.11
2024-02-27T07:17:50.928Z,26.04
2024-02-27T07:18:50.920Z,26.12
2024-02-27T07:19:50.875Z,26.10
2024-02-27T07:20:50.848Z,26.14
2024-02-27T07:21:50.886Z,26.08
2024-02-27T07:22:50.880Z,26.17
2024-02-27T07:23:50.864Z,26.24
2024-02-27T07:24:50.871Z,26.41
2024-02-27T07:25:50.880Z,26.60
2024-02-27T07:26:50.855Z,26.64
2024-02-27T07:27:50.965Z,26.82
2024-02-27T07:28:50.851Z,26.75
2024-02-27T07:29:50.949Z,26.98
2024-02-27T07:30:50.874Z,26.97
2024-02-27T07:31:50.847Z,27.15
2024-02-27T07:32:50.903Z,27.33
2024-02-27T07:33:50.845Z,27.31
2024-02-27T07:34:50.922Z,27.60
2024-02-27T07:35:50.876Z,27.41
2024-02-27T07:36:50.910Z,26.85
2024-02-27T07:37:50.882Z,26.59
2024-02-27T07:38:50.907Z,26.01
2024-02-27T07:39:50.927Z,25.84
2024-02-27T07:40:50.893Z,25.54
2024-02-27T07:41:50.864Z,25.58
2024-02-27T07:42:50.865Z,25.58
2024-02-27T07:43:50.892Z,25.61
2024-02-27T07:44:50.884Z,26.00
2024-02-27T07:45:51.054Z,25.70
2024-02-27T07:46:50.901Z,25.80
2024-02-27T07:47:50.893Z,25.73
2024-02-27T07:48:50.931Z,25.75
2024-02-27T07:49:53.355Z,25.81
2024-02-27T07:50:50.882Z,25.97
2024-02-27T07:51:50.875Z,25.96
2024-02-27T07:52:50.904Z,25.91
2024-02-27T07:53:50.886Z,26.02
2024-02-27T07:54:50.999Z,25.98
2024-02-27T07:55:50.935Z,25.97
2024-02-27T07:56:51.487Z,25.96
2024-02-27T07:57:50.882Z,26.02
2024-02-27T07:58:50.887Z,26.21
2024-02-27T07:59:50.935Z,26.50
2024-02-27T08:00:51.011Z,26.89
2024-02-27T08:01:51.031Z,27.18
2024-02-27T08:02:51.430Z,27.22
2024-02-27T08:03:50.988Z,27.13
2024-02-27T08:04:50.932Z,27.26
2024-02-27T08:05:51.433Z,27.55
2024-02-27T08:06:51.000Z,27.50
2024-02-27T08:07:50.911Z,27.58
2024-02-27T08:08:50.901Z,27.48
2024-02-27T08:09:50.937Z,27.81
2024-02-27T08:10:51.408Z,27.59
2024-02-27T08:11:50.918Z,27.87
2024-02-27T08:12:50.914Z,27.80
2024-02-27T08:13:51.382Z,27.74
2024-02-27T08:14:50.958Z,27.89
2024-02-27T08:15:50.980Z,28.07
2024-02-27T08:16:50.911Z,28.08
2024-02-27T08:17:51.450Z,28.10
2024-02-27T08:18:51.032Z,28.12
2024-02-27T08:19:51.027Z,28.21
2024-02-27T08:20:50.935Z,28.22
2024-02-27T08:21:50.959Z,28.21
2024-02-27T08:22:51.402Z,28.14
2024-02-27T08:23:50.946Z,28.27
2024-02-27T08:24:50.959Z,28.37
2024-02-27T08:25:50.899Z,28.80
2024-02-27T08:26:54.061Z,28.63
2024-02-27T08:27:51.556Z,28.68
2024-02-27T08:28:50.959Z,28.72
2024-02-27T08:29:50.953Z,28.72
2024-02-27T08:30:51.621Z,28.91
2024-02-27T08:31:50.952Z,28.83
2024-02-27T08:32:51.539Z,28.45
2024-02-27T08:33:51.708Z,28.14
2024-02-27T08:34:51.095Z,28.33
2024-02-27T08:35:50.957Z,28.10
2024-02-27T08:36:50.986Z,27.82
2024-02-27T08:37:50.948Z,27.68
2024-02-27T08:38:51.436Z,27.62
2024-02-27T08:39:51.415Z,27.01
2024-02-27T08:40:50.984Z,26.47
2024-02-27T08:41:50.951Z,26.37
2024-02-27T08:42:50.975Z,26.03
2024-02-27T08:43:51.472Z,25.67
2024-02-27T08:44:51.005Z,25.51
2024-02-27T08:45:50.972Z,25.47
2024-02-27T08:46:50.953Z,25.31
2024-02-27T08:47:51.024Z,25.00
2024-02-27T08:48:51.998Z,24.93
2024-02-27T08:49:51.263Z,24.72
2024-02-27T08:50:51.018Z,24.74
2024-02-27T08:51:50.956Z,24.66
2024-02-27T08:52:50.985Z,24.84
2024-02-27T08:53:51.419Z,24.99
2024-02-27T08:54:50.998Z,24.98
2024-02-27T08:55:51.011Z,24.99
2024-02-27T08:56:50.974Z,24.82
2024-02-27T08:57:51.055Z,24.82
2024-02-27T08:58:51.451Z,24.82
2024-02-27T08:59:51.041Z,24.74
2024-02-27T09:00:51.487Z,24.78
2024-02-27T09:01:51.161Z,24.84
2024-02-27T09:02:51.225Z,24.93
2024-02-27T09:03:51.498Z,25.00
2024-02-27T09:04:51.311Z,24.97
2024-02-27T09:05:51.434Z,25.02
2024-02-27T09:06:51.496Z,25.09
2024-02-27T09:07:51.444Z,25.16
2024-02-27T09:08:51.452Z,25.16
2024-02-27T09:09:51.600Z,25.21
2024-02-27T09:10:51.761Z,25.27
2024-02-27T09:11:51.967Z,25.24
2024-02-27T09:12:52.463Z,25.25
2024-02-27T09:13:51.918Z,25.20
2024-02-27T09:14:53.842Z,25.15
2024-02-27T09:15:51.943Z,25.17
2024-02-27T09:16:51.836Z,25.18
2024-02-27T09:17:51.998Z,25.06
2024-02-27T09:18:52.531Z,25.05
2024-02-27T09:19:52.049Z,25.12
2024-02-27T09:20:52.060Z,25.08
2024-02-27T09:21:52.193Z,25.15
2024-02-27T09:22:52.124Z,25.13
2024-02-27T09:23:52.144Z,25.09
2024-02-27T09:24:52.275Z,25.04
2024-02-27T09:25:52.432Z,25.10
2024-02-27T09:26:52.314Z,25.11
2024-02-27T09:27:52.387Z,25.17
2024-02-27T09:28:52.441Z,25.20
2024-02-27T09:29:52.459Z,25.20
2024-02-27T09:30:52.567Z,25.16
2024-02-27T09:31:52.559Z,25.25
2024-02-27T09:32:52.643Z,25.32
2024-02-27T09:33:52.975Z,25.37
2024-02-27T09:34:52.800Z,25.44
2024-02-27T09:35:52.649Z,25.47
2024-02-27T09:36:52.978Z,25.49
2024-02-27T09:37:55.615Z,25.53
2024-02-27T09:38:52.968Z,25.51
2024-02-27T09:39:58.899Z,25.44
2024-02-27T09:40:53.918Z,25.41
2024-02-27T09:41:52.773Z,25.48
2024-02-27T09:42:52.771Z,25.48
2024-02-27T09:43:52.783Z,25.49
2024-02-27T09:44:52.789Z,25.46
2024-02-27T09:45:52.962Z,25.52
2024-02-27T09:46:52.761Z,25.55
2024-02-27T09:47:52.778Z,25.55
2024-02-27T09:48:53.018Z,25.58
2024-02-27T09:49:52.841Z,25.62
2024-02-27T09:50:52.991Z,25.56
2024-02-27T09:51:52.740Z,25.64
2024-02-27T09:52:53.128Z,25.64
2024-02-27T09:53:52.835Z,25.61
2024-02-27T09:54:52.778Z,25.58
2024-02-27T09:55:52.928Z,25.50
2024-02-27T09:56:52.806Z,25.46
2024-02-27T09:57:53.009Z,25.38
2024-02-27T09:58:52.977Z,25.41
2024-02-27T09:59:53.031Z,25.45
2024-02-27T10:00:53.220Z,25.45
2024-02-27T10:01:53.311Z,25.43
2024-02-27T10:02:53.200Z,25.43
2024-02-27T10:03:53.510Z,25.45
2024-02-27T10:04:53.166Z,25.48
2024-02-27T10:05:53.214Z,25.49
2024-02-27T10:06:53.273Z,25.55
2024-02-27T10:07:53.179Z,25.56
2024-02-27T10:08:53.211Z,25.60
2024-02-27T10:09:53.552Z,25.60
2024-02-27T10:10:53.242Z,25.55
2024-02-27T10:11:53.208Z,25.44
2024-02-27T10:12:53.251Z,25.44
2024-02-27T10:13:53.476Z,25.42
2024-02-27T10:14:53.302Z,25.32
2024-02-27T10:15:53.331Z,25.35
2024-02-27T10:16:53.481Z,25.30
2024-02-27T10:17:53.388Z,25.35
2024-02-27T10:18:53.685Z,25.31
2024-02-27T10:19:53.477Z,25.36
2024-02-27T10:20:53.295Z,25.34
2024-02-27T10:21:53.457Z,25.34
2024-02-27T10:22:54.858Z,25.34
2024-02-27T10:23:53.363Z,25.32
2024-02-27T10:24:53.367Z,25.32
2024-02-27T10:25:53.491Z,25.38
2024-02-27T10:26:53.375Z,25.32
2024-02-27T10:27:53.396Z,25.32
2024-02-27T10:28:53.495Z,25.24
2024-02-27T10:29:53.457Z,25.24
2024-02-27T10:30:53.565Z,25.17
2024-02-27T10:31:54.449Z,25.24
2024-02-27T10:32:53.713Z,25.28
2024-02-27T10:33:54.051Z,25.42
2024-02-27T10:34:53.819Z,25.42
2024-02-27T10:35:53.732Z,25.43
2024-02-27T10:36:53.663Z,25.41
2024-02-27T10:37:53.747Z,25.21
2024-02-27T10:38:53.745Z,25.22
2024-02-27T10:39:53.820Z,25.07
2024-02-27T10:40:53.994Z,25.03
2024-02-27T10:41:54.007Z,24.96
2024-02-27T10:42:54.033Z,24.92
2024-02-27T10:43:58.943Z,24.96
2024-02-27T10:44:55.061Z,25.04
2024-02-27T10:45:54.103Z,25.00
2024-02-27T10:46:54.158Z,25.00
2024-02-27T10:47:54.212Z,25.04
2024-02-27T10:48:54.708Z,25.12
2024-02-27T10:49:54.513Z,25.17
2024-02-27T10:50:54.465Z,25.19
2024-02-27T10:51:54.422Z,25.18
2024-02-27T10:52:54.478Z,25.26
2024-02-27T10:53:54.530Z,25.27
2024-02-27T10:54:54.565Z,25.33
2024-02-27T10:55:54.981Z,25.34
2024-02-27T10:56:54.618Z,25.39
2024-02-27T10:57:54.727Z,25.41
2024-02-27T10:58:54.572Z,25.51
2024-02-27T10:59:54.625Z,25.56
2024-02-27T11:00:55.065Z,25.61
2024-02-27T11:01:54.800Z,25.70
2024-02-27T11:02:54.702Z,25.64
2024-02-27T11:03:54.859Z,25.89
2024-02-27T11:04:54.888Z,25.92
2024-02-27T11:05:55.037Z,25.98
2024-02-27T11:06:55.126Z,26.11
2024-02-27T11:07:54.888Z,26.15
2024-02-27T11:08:54.933Z,26.28
2024-02-27T11:09:55.016Z,26.37
2024-02-27T11:10:55.045Z,26.35
2024-02-27T11:11:55.502Z,26.23
2024-02-27T11:12:55.127Z,26.28
2024-02-27T11:13:55.062Z,26.33
2024-02-27T11:14:55.087Z,26.34
2024-02-27T11:15:55.132Z,26.36
2024-02-27T11:16:56.018Z,26.49
2024-02-27T11:17:55.198Z,26.41
2024-02-27T11:18:55.631Z,26.43
2024-02-27T11:19:55.272Z,26.42
2024-02-27T11:20:55.127Z,26.46
2024-02-27T11:21:55.195Z,26.41
2024-02-27T11:22:55.214Z,26.40
2024-02-27T11:23:55.480Z,26.36
2024-02-27T11:24:55.279Z,26.40
2024-02-27T11:25:55.240Z,26.32
2024-02-27T11:26:55.248Z,26.29
2024-02-27T11:27:55.316Z,26.19
2024-02-27T11:28:55.482Z,26.20
2024-02-27T11:29:55.293Z,26.17
2024-02-27T11:30:55.329Z,26.12
2024-02-27T11:31:55.293Z,26.08
2024-02-27T11:32:55.363Z,26.11
2024-02-27T11:33:55.587Z,26.12
2024-02-27T11:34:55.471Z,26.13
2024-02-27T11:35:55.452Z,26.14
2024-02-27T11:36:55.469Z,26.18
2024-02-27T11:37:55.478Z,26.26
2024-02-27T11:38:55.470Z,26.34
2024-02-27T11:39:56.106Z,26.44
2024-02-27T11:40:55.550Z,26.48
2024-02-27T11:41:55.539Z,26.50
2024-02-27T11:42:55.640Z,26.62
2024-02-27T11:43:55.993Z,26.56
2024-02-27T11:44:56.021Z,26.67
2024-02-27T11:45:55.664Z,26.72
2024-02-27T11:46:55.733Z,26.77
2024-02-27T11:47:56.346Z,26.77
2024-02-27T11:48:56.085Z,26.72
2024-02-27T11:49:55.819Z,26.65
2024-02-27T11:50:56.013Z,26.62
2024-02-27T11:51:55.852Z,26.67
2024-02-27T11:52:55.816Z,26.67
2024-02-27T11:53:55.862Z,26.64
2024-02-27T11:54:55.813Z,26.63
2024-02-27T11:55:56.061Z,26.58
2024-02-27T11:56:55.892Z,26.57
2024-02-27T11:57:55.941Z,26.51
2024-02-27T11:58:56.022Z,26.47
2024-02-27T11:59:56.094Z,26.44
2024-02-27T12:00:56.627Z,26.37
2024-02-27T12:01:59.953Z,26.42
2024-02-27T12:02:56.225Z,26.47
2024-02-27T12:03:56.406Z,26.47
2024-02-27T12:04:56.308Z,26.36
2024-02-27T12:05:56.527Z,26.41
2024-02-27T12:06:56.481Z,26.36
2024-02-27T12:07:56.283Z,26.37
2024-02-27T12:08:56.282Z,26.30
2024-02-27T12:09:56.237Z,26.29
2024-02-27T12:10:56.581Z,26.25
2024-02-27T12:11:56.281Z,26.17
2024-02-27T12:12:56.256Z,26.06
2024-02-27T12:13:56.216Z,26.06
2024-02-27T12:14:56.242Z,25.98
2024-02-27T12:15:56.569Z,26.05
2024-02-27T12:16:56.214Z,26.05
2024-02-27T12:17:56.423Z,26.07
2024-02-27T12:18:56.340Z,25.94
2024-02-27T12:19:56.254Z,25.96
2024-02-27T12:20:56.245Z,25.94
2024-02-27T12:21:56.532Z,25.91
2024-02-27T12:22:56.283Z,25.90
2024-02-27T12:23:56.270Z,25.88
2024-02-27T12:24:56.604Z,25.80
2024-02-27T12:25:56.236Z,25.78
2024-02-27T12:26:56.299Z,25.78
2024-02-27T12:27:56.548Z,25.73
2024-02-27T12:28:56.383Z,25.88
2024-02-27T12:29:56.489Z,25.91
2024-02-27T12:30:56.649Z,25.88
2024-02-27T12:31:56.606Z,25.94
2024-02-27T12:32:56.820Z,25.98
2024-02-27T12:33:56.889Z,25.98
2024-02-27T12:34:56.744Z,26.08
2024-02-27T12:35:56.715Z,26.08
2024-02-27T12:36:56.784Z,26.09
2024-02-27T12:37:56.782Z,26.12
2024-02-27T12:38:56.775Z,26.04
2024-02-27T12:39:56.800Z,25.89
2024-02-27T12:40:56.800Z,25.96
2024-02-27T12:41:57.783Z,25.90
2024-02-27T12:42:56.872Z,25.94
2024-02-27T12:43:56.878Z,26.04
2024-02-27T12:44:56.884Z,26.04
2024-02-27T12:45:57.078Z,26.14
2024-02-27T12:46:56.936Z,26.03
2024-02-27T12:47:57.074Z,26.02
2024-02-27T12:48:57.261Z,25.99
2024-02-27T12:49:57.102Z,25.98
2024-02-27T12:50:57.182Z,25.91
2024-02-27T12:51:57.216Z,25.77
2024-02-27T12:53:02.807Z,25.76